TimeCDT,TemperatureF,Dew PointF,Humidity,Sea Level PressureIn,VisibilityMPH,Wind Direction,Wind SpeedMPH,Gust SpeedMPH,PrecipitationIn,Events,Conditions,WindDirDegrees,DateUTC
12:15 AM,61.9,59.0,90,30.02,10.0,Calm,Calm,-,N/A,,Clear,0,2013-05-07 05:15:00
12:35 AM,62.6,59.2,89,30.02,10.0,Calm,Calm,-,N/A,,Clear,0,2013-05-07 05:35:00
12:55 AM,62.8,59.4,89,30.02,10.0,Calm,Calm,-,N/A,,Clear,0,2013-05-07 05:55:00
1:15 AM,62.6,59.7,90,30.01,10.0,Calm,Calm,-,N/A,,Clear,0,2013-05-07 06:15:00
1:35 AM,61.5,59.0,91,30.00,10.0,Calm,Calm,-,N/A,,Clear,0,2013-05-07 06:35:00
1:55 AM,61.2,59.2,93,30.00,10.0,Calm,Calm,-,N/A,,Clear,0,2013-05-07 06:55:00
2:15 AM,60.4,58.8,94,30.00,10.0,Calm,Calm,-,N/A,,Clear,0,2013-05-07 07:15:00
2:35 AM,60.4,58.8,94,29.99,10.0,Calm,Calm,-,N/A,,Clear,0,2013-05-07 07:35:00
2:55 AM,59.5,57.9,94,29.99,10.0,Calm,Calm,-,N/A,,Clear,0,2013-05-07 07:55:00
3:15 AM,59.4,57.7,94,29.99,10.0,Calm,Calm,-,N/A,,Clear,0,2013-05-07 08:15:00
3:35 AM,59.9,58.5,95,29.99,10.0,Calm,Calm,-,N/A,,Clear,0,2013-05-07 08:35:00
3:55 AM,60.1,59.0,96,29.99,10.0,Calm,Calm,-,N/A,,Clear,0,2013-05-07 08:55:00
4:15 AM,60.4,59.5,97,30.00,10.0,Calm,Calm,-,N/A,,Clear,0,2013-05-07 09:15:00
4:35 AM,59.9,59.2,97,30.00,7.0,Calm,Calm,-,N/A,,Clear,0,2013-05-07 09:35:00
5:15 AM,59.0,58.3,97,30.00,7.0,Calm,Calm,-,N/A,,Clear,0,2013-05-07 10:15:00
5:35 AM,59.0,58.5,98,30.00,10.0,Calm,Calm,-,N/A,,Clear,0,2013-05-07 10:35:00
5:55 AM,59.4,58.8,98,30.01,10.0,Calm,Calm,-,N/A,,Clear,0,2013-05-07 10:55:00
6:15 AM,59.0,58.1,97,30.02,7.0,Calm,Calm,-,N/A,,Clear,0,2013-05-07 11:15:00
6:35 AM,58.8,58.1,97,30.03,10.0,Calm,Calm,-,N/A,,Clear,0,2013-05-07 11:35:00
6:55 AM,58.8,58.3,98,30.03,10.0,Calm,Calm,-,N/A,,Clear,0,2013-05-07 11:55:00
7:15 AM,60.1,59.5,98,30.04,10.0,Calm,Calm,-,N/A,,Clear,0,2013-05-07 12:15:00
7:35 AM,61.5,60.8,97,30.04,10.0,Calm,Calm,-,N/A,,Clear,0,2013-05-07 12:35:00
7:55 AM,63.0,61.7,96,30.05,10.0,Calm,Calm,-,N/A,,Clear,0,2013-05-07 12:55:00
8:15 AM,64.9,63.1,94,30.06,10.0,WSW,3.5,-,N/A,,Clear,240,2013-05-07 13:15:00
8:35 AM,69.8,64.8,84,30.06,10.0,SW,4.6,-,N/A,,Clear,230,2013-05-07 13:35:00
8:55 AM,71.6,64.6,78,30.06,10.0,West,5.8,-,N/A,,Clear,260,2013-05-07 13:55:00
9:15 AM,72.0,63.9,76,30.06,10.0,WSW,6.9,-,N/A,,Clear,240,2013-05-07 14:15:00
9:35 AM,73.4,63.5,71,30.06,10.0,SW,4.6,-,N/A,,Clear,220,2013-05-07 14:35:00
9:55 AM,74.5,63.9,69,30.06,10.0,SSW,8.1,-,N/A,,Clear,210,2013-05-07 14:55:00
10:15 AM,75.4,63.1,66,30.06,10.0,SW,5.8,-,N/A,,Clear,230,2013-05-07 15:15:00
10:35 AM,76.5,63.3,64,30.07,10.0,SW,4.6,-,N/A,,Clear,230,2013-05-07 15:35:00
10:55 AM,76.8,62.4,61,30.07,10.0,WSW,8.1,-,N/A,,Clear,250,2013-05-07 15:55:00
11:15 AM,77.7,62.4,59,30.07,10.0,SW,10.4,-,N/A,,Clear,220,2013-05-07 16:15:00
11:35 AM,78.3,59.7,53,30.07,10.0,West,8.1,-,N/A,,Clear,260,2013-05-07 16:35:00
11:55 AM,78.8,60.8,54,30.06,10.0,SW,8.1,-,N/A,,Clear,220,2013-05-07 16:55:00
12:15 PM,79.7,60.8,52,30.05,10.0,SW,6.9,-,N/A,,Clear,220,2013-05-07 17:15:00
12:35 PM,79.9,60.8,52,30.05,10.0,SSW,4.6,-,N/A,,Clear,210,2013-05-07 17:35:00
12:55 PM,78.8,64.8,62,30.04,10.0,South,9.2,-,N/A,,Scattered Clouds,180,2013-05-07 17:55:00
1:15 PM,78.3,64.8,63,30.04,10.0,South,11.5,18.4,N/A,,Mostly Cloudy,190,2013-05-07 18:15:00
1:35 PM,80.1,64.8,59,30.04,10.0,South,11.5,18.4,N/A,,Mostly Cloudy,180,2013-05-07 18:35:00
1:55 PM,81.1,60.3,49,30.03,10.0,SW,6.9,-,N/A,,Scattered Clouds,230,2013-05-07 18:55:00
2:15 PM,80.4,59.5,49,30.03,10.0,SW,9.2,-,N/A,,Scattered Clouds,230,2013-05-07 19:15:00
2:35 PM,81.7,64.9,57,30.02,10.0,SSW,11.5,-,N/A,,Scattered Clouds,210,2013-05-07 19:35:00
2:55 PM,79.3,59.5,51,30.02,10.0,SW,9.2,-,N/A,,Scattered Clouds,220,2013-05-07 19:55:00
3:15 PM,78.8,60.1,53,30.01,10.0,WSW,6.9,-,N/A,,Mostly Cloudy,240,2013-05-07 20:15:00
3:35 PM,80.6,59.9,49,30.01,10.0,WSW,6.9,-,N/A,,Scattered Clouds,240,2013-05-07 20:35:00
3:55 PM,81.3,59.7,48,30.00,10.0,SW,8.1,-,N/A,,Clear,220,2013-05-07 20:55:00
4:15 PM,81.9,59.7,47,30.00,10.0,SW,11.5,18.4,N/A,,Clear,230,2013-05-07 21:15:00
4:35 PM,81.3,63.9,55,30.00,10.0,SW,9.2,17.3,N/A,,Clear,220,2013-05-07 21:35:00
4:55 PM,80.2,64.9,59,29.99,10.0,SSW,15.0,21.9,N/A,,Scattered Clouds,200,2013-05-07 21:55:00
5:15 PM,79.5,64.6,60,30.00,10.0,SSW,15.0,23.0,N/A,,Scattered Clouds,200,2013-05-07 22:15:00
5:35 PM,78.6,64.6,62,30.00,10.0,South,12.7,19.6,N/A,,Scattered Clouds,190,2013-05-07 22:35:00
5:55 PM,77.9,64.8,64,30.00,10.0,SSW,13.8,20.7,N/A,,Mostly Cloudy,200,2013-05-07 22:55:00
6:15 PM,77.4,64.0,63,30.00,10.0,South,18.4,21.9,N/A,,Mostly Cloudy,190,2013-05-07 23:15:00
6:55 PM,75.4,62.6,64,30.00,10.0,SSW,15.0,19.6,N/A,,Scattered Clouds,210,2013-05-07 23:55:00
7:15 PM,74.3,62.1,65,30.01,10.0,SSW,11.5,-,N/A,,Clear,210,2013-05-08 00:15:00
7:35 PM,73.2,63.0,70,30.01,10.0,SSW,9.2,-,N/A,,Clear,210,2013-05-08 00:35:00
7:55 PM,72.1,62.8,72,30.02,10.0,SSW,6.9,-,N/A,,Clear,210,2013-05-08 00:55:00
8:15 PM,71.1,62.4,74,30.02,10.0,SW,4.6,-,N/A,,Clear,220,2013-05-08 01:15:00
8:35 PM,70.3,62.2,75,30.03,10.0,SW,3.5,-,N/A,,Clear,220,2013-05-08 01:35:00
8:55 PM,69.8,62.1,76,30.03,10.0,SW,4.6,-,N/A,,Clear,220,2013-05-08 01:55:00
9:15 PM,69.8,61.9,76,30.04,10.0,SW,4.6,-,N/A,,Scattered Clouds,220,2013-05-08 02:15:00
9:35 PM,69.8,62.6,78,30.05,10.0,SW,4.6,-,N/A,,Scattered Clouds,220,2013-05-08 02:35:00
9:55 PM,69.1,62.8,80,30.05,10.0,SW,4.6,-,N/A,,Clear,220,2013-05-08 02:55:00
10:15 PM,68.9,63.5,83,30.06,10.0,SW,5.8,-,N/A,,Scattered Clouds,220,2013-05-08 03:15:00
10:35 PM,68.9,63.9,84,30.06,10.0,SW,4.6,-,N/A,,Clear,220,2013-05-08 03:35:00
10:55 PM,68.7,63.9,84,30.06,10.0,SW,4.6,-,N/A,,Clear,220,2013-05-08 03:55:00
11:15 PM,68.0,64.4,88,30.07,10.0,SW,3.5,-,N/A,,Clear,220,2013-05-08 04:15:00
11:35 PM,68.0,64.4,88,30.07,10.0,SW,3.5,-,N/A,,Clear,220,2013-05-08 04:35:00
11:55 PM,68.0,64.4,88,30.07,10.0,Calm,Calm,-,N/A,,Clear,0,2013-05-08 04:55:00